Time;durP1;ratioP1;P1;durP2;ratioP2;P2;SDS_P1;SDS_P2;PMS_P1;PMS_P2;Temp;Humidity;BMP_temperature;BMP_pressure;BME280_temperature;BME280_humidity;BME280_pressure;Samples;Min_cycle;Max_cycle;Signal;HPM_P1;HPM_P2
2021/07/09 16:28:57;;;;;;;15.63;7.10;;;;;;;24.47;69.61;98819.11;256678;1090;103430;-55
2021/07/09 16:34:44;;;;;;;37.70;23.57;;;;;;;24.67;69.41;98819.37;257302;1093;103627;-53
2021/07/09 16:45:51;;;;;;;45.48;35.78;;;;;;;25.16;68.90;98829.56;257699;1090;103049;-53
2021/07/09 16:52:52;;;;;;;34.60;27.30;;;;;;;25.38;68.37;98839.44;257293;1093;103100;-51
2021/07/09 17:05:39;;;;;;;16.83;8.20;;;;;;;25.41;67.79;98887.25;257985;1093;103448;-55
2021/07/09 17:10:49;;;;;;;13.60;7.60;;;;;;;25.44;67.46;98895.88;256695;1092;103781;-60
2021/07/09 17:15:58;;;;;;;11.77;8.00;;;;;;;25.51;67.51;98908.70;262440;1093;107915;-56
2021/07/09 17:21:16;;;;;;;31.53;18.50;;;;;;;25.58;67.59;98904.19;258704;1095;115787;-57
2021/07/09 17:26:43;;;;;;;20.67;16.40;;;;;;;25.59;67.04;98927.67;259134;1096;116179;-58
2021/07/09 17:32:05;;;;;;;17.98;13.63;;;;;;;25.53;66.82;98922.99;261553;1095;115010;-54
2021/07/09 17:37:34;;;;;;;95.27;75.20;;;;;;;25.51;66.72;98919.61;258686;1095;115281;-55
2021/07/09 17:43:04;;;;;;;22.37;17.70;;;;;;;25.46;66.55;98901.96;257761;1096;115850;-60
2021/07/09 17:49:16;;;;;;;22.60;16.83;;;;;;;25.37;66.38;98919.46;257195;1095;116721;-57
2021/07/09 17:55:27;;;;;;;;;;;;;;;;;;;;;
2021/07/09 18:01:23;;;;;;;18.87;15.80;;;;;;;25.15;66.07;98981.25;257393;1096;115203;-55
2021/07/09 18:06:59;;;;;;;22.83;17.13;;;;;;;25.06;65.84;99000.57;256396;1095;117601;-53
2021/07/09 18:12:31;;;;;;;83.67;73.07;;;;;;;24.95;65.85;98958.33;258602;1096;115899;-59
2021/07/09 18:18:40;;;;;;;;;;;;;;;;;;;;;
2021/07/09 18:24:37;;;;;;;21.27;13.70;;;;;;;24.79;65.23;99003.76;256871;1096;115439;-56
2021/07/09 18:30:33;;;;;;;15.67;11.77;;;;;;;24.63;65.08;99009.41;257420;1096;115769;-56
2021/07/09 18:36:22;;;;;;;143.30;109.17;;;;;;;24.46;65.13;99019.61;259629;1095;115374;-50
2021/07/09 18:42:53;;;;;;;20.73;12.70;;;;;;;24.38;64.95;99022.35;257168;1095;116392;-66
2021/07/09 18:48:30;;;;;;;15.43;11.55;;;;;;;24.18;64.72;99037.49;257138;1096;117787;-68
2021/07/09 18:53:53;;;;;;;64.88;55.73;;;;;;;24.11;65.20;99047.41;255785;1095;116277;-55
2021/07/09 18:59:48;;;;;;;13.25;10.35;;;;;;;24.05;65.17;99057.16;256539;1096;115154;-67
2021/07/09 19:05:39;;;;;;;16.60;10.77;;;;;;;23.97;65.24;99062.64;258585;1096;114683;-67
2021/07/09 19:11:29;;;;;;;13.93;10.60;;;;;;;23.90;65.00;99069.83;258218;1095;117027;-65
2021/07/09 19:16:57;;;;;;;15.60;11.37;;;;;;;23.81;65.30;99072.61;257366;1095;114842;-52
2021/07/09 19:22:09;;;;;;;35.83;28.97;;;;;;;23.86;65.87;99071.22;257297;1096;115830;-56
2021/07/09 19:27:33;;;;;;;14.75;9.30;;;;;;;23.84;65.50;99085.84;257027;1096;116504;-67
2021/07/09 19:32:48;;;;;;;14.25;9.15;;;;;;;23.79;65.31;99088.23;258323;1095;115243;-67
2021/07/09 19:38:12;;;;;;;15.97;10.27;;;;;;;23.73;65.47;99063.64;258695;1096;116013;-66
2021/07/09 19:43:37;;;;;;;14.07;9.63;;;;;;;23.67;65.59;99073.31;257555;1096;114996;-66
2021/07/09 19:48:56;;;;;;;14.47;10.37;;;;;;;23.58;65.59;99079.84;256274;1096;115730;-64
2021/07/09 19:54:37;;;;;;;14.20;8.87;;;;;;;23.53;65.58;99093.09;256535;1096;115416;-65
2021/07/09 19:59:52;;;;;;;14.83;9.20;;;;;;;23.50;65.71;99099.71;256510;1095;114959;-64
2021/07/09 20:05:18;;;;;;;14.90;9.47;;;;;;;23.46;65.84;99089.39;257206;1096;115915;-66
2021/07/09 20:10:34;;;;;;;16.57;9.40;;;;;;;23.35;65.82;99063.47;258430;1095;115123;-65
2021/07/09 20:15:50;;;;;;;15.13;9.00;;;;;;;23.30;66.15;99063.13;260713;1096;115056;-65
2021/07/09 20:21:09;;;;;;;13.30;7.83;;;;;;;23.29;66.25;99067.72;257522;1096;114604;-67
2021/07/09 20:26:21;;;;;;;13.93;8.23;;;;;;;23.29;66.05;99077.74;256126;1096;115291;-68
2021/07/09 20:31:35;;;;;;;13.90;8.20;;;;;;;23.27;66.11;99066.23;257404;1095;114943;-67
2021/07/09 20:37:06;;;;;;;12.50;8.47;;;;;;;23.22;65.89;99069.45;258133;1095;115220;-72
2021/07/09 20:42:23;;;;;;;12.90;9.33;;;;;;;23.22;66.08;99063.17;257524;1096;115334;-67
2021/07/09 20:47:50;;;;;;;12.17;6.93;;;;;;;23.14;66.08;99055.91;256469;1096;116166;-68
2021/07/09 20:53:06;;;;;;;13.75;7.50;;;;;;;23.11;66.07;99053.55;257533;1096;115213;-69
2021/07/09 20:58:48;;;;;;;10.53;7.15;;;;;;;23.09;65.79;99042.00;257736;1095;114926;-71
2021/07/09 21:04:14;;;;;;;15.00;7.40;;;;;;;23.04;65.98;99049.84;257284;1095;115027;-66
2021/07/09 21:09:32;;;;;;;14.60;6.90;;;;;;;22.98;65.99;99066.82;260271;1096;115338;-65
2021/07/09 21:14:46;;;;;;;9.97;6.93;;;;;;;22.94;66.06;99074.47;256977;1095;116074;-66
2021/07/09 21:19:59;;;;;;;14.17;8.50;;;;;;;22.94;66.24;99076.34;256571;1096;114922;-64
2021/07/09 21:25:14;;;;;;;10.47;7.83;;;;;;;22.92;65.97;99079.17;257311;1096;115178;-65
2021/07/09 21:30:44;;;;;;;10.90;7.75;;;;;;;22.88;66.09;99066.98;259601;1093;115804;-64
2021/07/09 21:36:07;;;;;;;14.03;8.20;;;;;;;22.83;66.27;99070.22;257511;1093;114906;-63
2021/07/09 21:42:07;;;;;;;14.47;7.87;;;;;;;22.83;66.36;99072.94;256055;1096;115134;-67
2021/07/09 21:47:25;;;;;;;14.07;8.20;;;;;;;22.80;66.61;99081.42;257580;1095;116297;-67
2021/07/09 21:53:24;;;;;;;15.53;8.80;;;;;;;22.77;66.54;99068.19;257644;1096;114958;-67
2021/07/09 21:59:29;;;;;;;15.47;8.73;;;;;;;22.74;66.67;99073.96;256146;1096;114781;-69
2021/07/09 22:05:11;;;;;;;11.97;8.10;;;;;;;22.63;66.55;99080.59;256591;1096;114966;-69
2021/07/09 22:10:46;;;;;;;13.27;8.37;;;;;;;22.57;66.67;99080.43;256508;1096;114871;-67
2021/07/09 22:16:07;;;;;;;12.23;7.47;;;;;;;22.53;66.53;99084.51;257430;1096;115253;-66
2021/07/09 22:21:30;;;;;;;10.20;8.00;;;;;;;22.49;66.69;99088.59;257364;1095;115744;-66
2021/07/09 22:26:46;;;;;;;9.03;7.07;;;;;;;22.42;66.76;99094.69;257294;1096;114870;-67
2021/07/09 22:32:12;;;;;;;;;;;;;;;;;;;;;
2021/07/09 22:37:31;;;;;;;7.07;5.30;;;;;;;22.39;66.61;99121.30;257702;1096;115160;-66
2021/07/09 22:43:00;;;;;;;6.23;4.07;;;;;;;22.38;66.23;99131.30;257703;1095;115365;-66
2021/07/09 22:48:25;;;;;;;5.63;3.30;;;;;;;22.32;65.78;99148.23;260652;1096;114817;-67
2021/07/09 22:54:00;;;;;;;3.93;2.27;;;;;;;22.29;65.49;99145.86;257799;1095;117189;-67
2021/07/09 22:59:30;;;;;;;2.60;1.60;;;;;;;22.25;64.89;99125.52;255917;1095;114553;-67
2021/07/09 23:04:59;;;;;;;4.13;1.60;;;;;;;22.20;64.32;99141.43;258314;1096;115644;-68
2021/07/09 23:10:54;;;;;;;2.87;1.43;;;;;;;22.13;63.93;99141.21;257217;1095;103100;-67
2021/07/09 23:16:43;;;;;;;1.90;1.30;;;;;;;22.01;63.60;99150.69;255767;1096;114801;-67
2021/07/09 23:22:08;;;;;;;4.10;1.20;;;;;;;21.89;63.17;99182.66;259344;1096;115828;-68
2021/07/09 23:27:56;;;;;;;3.17;1.17;;;;;;;21.83;63.13;99183.30;258439;1095;114755;-65
2021/07/09 23:33:40;;;;;;;4.50;1.35;;;;;;;21.79;62.95;99173.81;256246;1096;115675;-68
2021/07/09 23:39:07;;;;;;;5.47;1.17;;;;;;;21.74;62.67;99165.34;259127;1095;115564;-67
2021/07/09 23:44:39;;;;;;;1.60;0.90;;;;;;;21.66;62.36;99170.70;258103;1095;114788;-69
2021/07/09 23:49:59;;;;;;;1.57;1.00;;;;;;;21.62;62.39;99164.77;261184;1095;115009;-69
2021/07/09 23:55:24;;;;;;;1.37;0.80;;;;;;;21.57;62.12;99163.55;256941;1095;115527;-68
